createdAt,value
2022-08-08T00:02:04.091Z,23.02
2022-08-08T00:04:16.351Z,22.98
2022-08-08T00:06:50.028Z,22.97
2022-08-08T00:09:19.080Z,22.92
2022-08-08T00:12:07.612Z,22.91
2022-08-08T00:14:48.299Z,22.88
2022-08-08T00:16:56.079Z,22.86
2022-08-08T00:19:13.868Z,22.90
2022-08-08T00:21:23.774Z,22.91
2022-08-08T00:23:47.727Z,22.91
2022-08-08T00:25:59.129Z,22.87
2022-08-08T00:28:08.162Z,22.85
2022-08-08T00:30:56.105Z,22.82
2022-08-08T00:33:13.474Z,22.80
2022-08-08T00:35:34.692Z,22.83
2022-08-08T00:38:02.354Z,22.82
2022-08-08T00:41:08.857Z,22.83
2022-08-08T00:42:43.116Z,22.82
2022-08-08T00:44:54.730Z,22.83
2022-08-08T00:48:05.070Z,22.89
2022-08-08T00:50:22.687Z,22.87
2022-08-08T00:52:56.369Z,22.89
2022-08-08T00:55:52.556Z,22.90
2022-08-08T00:58:30.643Z,22.90
2022-08-08T01:00:50.420Z,22.92
2022-08-08T01:03:58.096Z,22.97
2022-08-08T01:06:27.745Z,22.96
2022-08-08T01:08:50.257Z,22.98
2022-08-08T01:11:25.494Z,23.02
2022-08-08T01:14:05.021Z,23.04
2022-08-08T01:16:19.781Z,23.08
2022-08-08T01:18:25.367Z,23.08
2022-08-08T01:21:09.369Z,23.06
2022-08-08T01:24:02.870Z,23.10
2022-08-08T01:26:19.247Z,23.14
2022-08-08T01:28:47.229Z,23.17
2022-08-08T01:32:05.622Z,23.20
2022-08-08T01:34:11.486Z,23.19
2022-08-08T01:37:17.581Z,23.23
2022-08-08T01:39:45.241Z,23.22
2022-08-08T01:41:52.567Z,23.25
2022-08-08T01:44:10.144Z,23.28
2022-08-08T01:46:40.646Z,23.29
2022-08-08T01:48:57.408Z,23.34
2022-08-08T01:51:31.974Z,23.37
2022-08-08T01:55:17.606Z,23.40
2022-08-08T01:56:30.805Z,23.45
2022-08-08T01:58:48.673Z,23.49
2022-08-08T02:01:04.115Z,23.54
2022-08-08T02:03:57.529Z,23.58
2022-08-08T02:06:03.060Z,23.63
2022-08-08T02:08:18.086Z,23.63
2022-08-08T02:10:54.550Z,23.67
2022-08-08T02:13:54.525Z,23.68
2022-08-08T02:16:59.576Z,23.72
2022-08-08T02:19:58.024Z,23.70
2022-08-08T02:22:28.277Z,23.70
2022-08-08T02:27:42.299Z,23.72
2022-08-08T02:30:20.787Z,23.72
2022-08-08T02:32:31.338Z,23.73
2022-08-08T02:35:07.496Z,23.74
2022-08-08T02:37:52.278Z,23.76
2022-08-08T02:40:00.879Z,23.77
2022-08-08T02:42:41.935Z,23.78
2022-08-08T02:45:22.470Z,23.64
2022-08-08T02:47:52.007Z,23.42
2022-08-08T02:50:00.401Z,23.28
2022-08-08T02:52:38.758Z,23.20
2022-08-08T02:55:03.220Z,23.24
2022-08-08T02:57:44.570Z,23.44
2022-08-08T03:00:26.478Z,23.59
2022-08-08T03:02:40.321Z,23.70
2022-08-08T03:05:09.478Z,23.77
2022-08-08T03:07:25.093Z,23.82
2022-08-08T03:10:01.518Z,23.84
2022-08-08T03:13:01.930Z,23.79
2022-08-08T03:15:58.108Z,23.75
2022-08-08T03:18:06.877Z,23.72
2022-08-08T03:20:11.735Z,23.74
2022-08-08T03:22:37.529Z,23.73
2022-08-08T03:24:36.602Z,23.75
2022-08-08T03:27:01.461Z,23.79
2022-08-08T03:29:17.130Z,23.87
2022-08-08T03:32:06.266Z,23.94
2022-08-08T03:34:05.954Z,23.98
2022-08-08T03:36:19.681Z,24.02
2022-08-08T03:38:57.942Z,24.04
2022-08-08T03:40:54.236Z,24.12
2022-08-08T03:42:58.807Z,24.21
2022-08-08T03:46:05.095Z,24.31
2022-08-08T03:48:05.729Z,24.41
2022-08-08T03:50:24.568Z,24.50
2022-08-08T03:52:31.215Z,24.59
2022-08-08T03:54:51.791Z,24.68
2022-08-08T03:56:58.534Z,24.76
2022-08-08T03:59:01.194Z,24.84
2022-08-08T04:01:25.952Z,24.92
2022-08-08T04:03:57.351Z,24.98
2022-08-08T04:05:59.039Z,25.03
2022-08-08T04:08:07.591Z,25.08
2022-08-08T04:10:10.478Z,25.14
2022-08-08T04:12:13.480Z,25.18
2022-08-08T04:14:33.421Z,25.24
2022-08-08T04:16:40.772Z,25.30
2022-08-08T04:18:48.558Z,25.35
2022-08-08T04:20:51.800Z,25.37
2022-08-08T04:22:54.408Z,25.43
2022-08-08T04:24:59.840Z,25.42
2022-08-08T04:27:07.554Z,25.49
2022-08-08T04:29:15.086Z,25.50
2022-08-08T04:31:30.811Z,25.64
2022-08-08T04:33:42.126Z,25.69
2022-08-08T04:35:51.028Z,25.75
2022-08-08T04:37:55.435Z,25.82
2022-08-08T04:40:07.038Z,25.90
2022-08-08T04:42:11.298Z,25.91
2022-08-08T04:44:18.373Z,26.05
2022-08-08T04:46:25.065Z,26.12
2022-08-08T04:48:27.814Z,26.13
2022-08-08T04:50:38.715Z,26.16
2022-08-08T04:52:42.737Z,26.14
2022-08-08T04:54:51.144Z,26.16
2022-08-08T04:56:54.722Z,26.18
2022-08-08T04:58:57.321Z,26.26
2022-08-08T05:00:59.947Z,26.26
2022-08-08T05:03:12.588Z,26.24
2022-08-08T05:05:20.335Z,26.26
2022-08-08T05:07:42.638Z,26.28
2022-08-08T05:09:45.599Z,26.36
2022-08-08T05:11:57.026Z,26.41
2022-08-08T05:14:02.239Z,26.48
2022-08-08T05:16:48.209Z,26.49
2022-08-08T05:18:28.335Z,26.51
2022-08-08T05:20:30.934Z,26.58
2022-08-08T05:22:34.080Z,26.61
2022-08-08T05:24:38.649Z,26.58
2022-08-08T05:26:48.733Z,26.59
2022-08-08T05:28:57.131Z,26.58
2022-08-08T05:31:19.258Z,26.58
2022-08-08T05:33:43.971Z,26.65
2022-08-08T05:35:54.340Z,26.74
2022-08-08T05:38:04.597Z,26.82
2022-08-08T05:40:29.278Z,26.85
2022-08-08T05:42:44.896Z,26.97
2022-08-08T05:44:49.224Z,27.07
2022-08-08T05:46:54.865Z,27.10
2022-08-08T05:49:11.261Z,26.96
2022-08-08T05:51:15.591Z,27.07
2022-08-08T05:54:25.797Z,27.13
2022-08-08T05:56:11.510Z,27.20
2022-08-08T05:58:17.759Z,27.28
2022-08-08T06:00:25.835Z,27.36
2022-08-08T06:02:51.866Z,27.39
2022-08-08T06:04:59.135Z,27.31
2022-08-08T06:07:02.684Z,27.36
2022-08-08T06:09:59.105Z,27.41
2022-08-08T06:11:32.152Z,27.39
2022-08-08T06:13:36.366Z,27.48
2022-08-08T06:15:53.465Z,27.54
2022-08-08T06:18:20.599Z,27.65
2022-08-08T06:20:20.857Z,27.71
2022-08-08T06:22:38.799Z,27.74
2022-08-08T06:24:47.055Z,27.81
2022-08-08T06:27:05.492Z,27.91
2022-08-08T06:29:48.526Z,27.91
2022-08-08T06:31:52.304Z,27.93
2022-08-08T06:34:27.506Z,27.87
2022-08-08T06:36:53.520Z,27.95
2022-08-08T06:38:58.980Z,28.00
2022-08-08T06:41:07.487Z,28.12
2022-08-08T06:43:11.498Z,28.21
2022-08-08T06:45:15.257Z,28.31
2022-08-08T06:47:22.149Z,28.37
2022-08-08T06:49:56.480Z,28.43
2022-08-08T06:51:57.757Z,28.47
2022-08-08T06:54:01.626Z,28.38
2022-08-08T06:56:04.260Z,28.42
2022-08-08T06:58:07.144Z,28.48
2022-08-08T07:00:12.573Z,28.57
2022-08-08T07:02:28.663Z,28.70
2022-08-08T07:04:49.707Z,28.76
2022-08-08T07:07:01.138Z,28.83
2022-08-08T07:09:21.064Z,28.91
2022-08-08T07:11:30.231Z,28.84
2022-08-08T07:14:00.680Z,28.89
2022-08-08T07:16:12.480Z,29.01
2022-08-08T07:18:36.788Z,28.98
2022-08-08T07:20:50.413Z,29.03
2022-08-08T07:23:00.079Z,29.04
2022-08-08T07:25:06.749Z,29.15
2022-08-08T07:27:16.393Z,29.26
2022-08-08T07:30:02.217Z,29.32
2022-08-08T07:31:44.580Z,29.43
2022-08-08T07:33:58.842Z,29.42
2022-08-08T07:36:01.977Z,29.30
2022-08-08T07:38:18.397Z,29.18
2022-08-08T07:40:29.666Z,29.17
2022-08-08T07:42:37.706Z,29.21
2022-08-08T07:44:43.715Z,29.31
2022-08-08T07:46:46.761Z,29.43
2022-08-08T07:48:49.687Z,29.54
2022-08-08T07:50:55.156Z,29.58
2022-08-08T07:53:01.346Z,29.54
2022-08-08T07:55:19.360Z,29.45
2022-08-08T07:57:48.507Z,29.52
2022-08-08T07:59:54.585Z,29.52
2022-08-08T08:02:35.444Z,29.52
2022-08-08T08:04:29.531Z,29.67
2022-08-08T08:06:34.088Z,29.72
2022-08-08T08:08:52.373Z,29.69
2022-08-08T08:10:58.803Z,29.62
2022-08-08T08:13:26.011Z,29.71
2022-08-08T08:15:43.538Z,29.71
2022-08-08T08:17:55.427Z,29.82
2022-08-08T08:20:03.028Z,29.99
2022-08-08T08:22:07.821Z,30.13
2022-08-08T08:24:10.850Z,30.24
2022-08-08T08:26:15.345Z,30.20
2022-08-08T08:28:29.963Z,30.25
2022-08-08T08:30:34.015Z,30.30
2022-08-08T08:32:49.526Z,30.40
2022-08-08T08:34:54.404Z,30.53
2022-08-08T08:37:20.226Z,30.55
2022-08-08T08:39:23.585Z,30.49
2022-08-08T08:41:31.138Z,30.43
2022-08-08T08:43:42.492Z,30.44
2022-08-08T08:45:49.426Z,30.47
2022-08-08T08:48:00.821Z,30.57
2022-08-08T08:50:04.136Z,30.69
2022-08-08T08:52:08.108Z,30.64
2022-08-08T08:54:12.955Z,30.60
2022-08-08T08:56:24.004Z,30.74
2022-08-08T08:58:37.899Z,30.88
2022-08-08T09:01:05.062Z,31.03
2022-08-08T09:03:09.320Z,31.09
2022-08-08T09:05:13.817Z,31.15
2022-08-08T09:07:39.624Z,31.22
2022-08-08T09:09:57.497Z,31.27
2022-08-08T09:12:06.285Z,31.37
2022-08-08T09:14:11.699Z,31.44
2022-08-08T09:16:15.738Z,31.50
2022-08-08T09:18:20.961Z,31.56
2022-08-08T09:22:01.169Z,31.59
2022-08-08T09:22:49.829Z,31.66
2022-08-08T09:24:53.944Z,31.66
2022-08-08T09:27:14.945Z,31.70
2022-08-08T09:29:24.995Z,31.73
2022-08-08T09:31:42.662Z,31.84
2022-08-08T09:34:30.307Z,31.86
2022-08-08T09:36:28.602Z,31.92
2022-08-08T09:38:53.389Z,31.92
2022-08-08T09:41:03.515Z,31.88
2022-08-08T09:44:05.578Z,31.90
2022-08-08T09:46:04.122Z,31.98
2022-08-08T09:48:17.904Z,32.10
2022-08-08T09:50:28.197Z,32.14
2022-08-08T09:52:54.203Z,32.19
2022-08-08T09:54:55.514Z,32.16
2022-08-08T09:57:02.799Z,32.09
2022-08-08T09:59:31.918Z,32.20
2022-08-08T10:01:59.363Z,32.22
2022-08-08T10:03:58.095Z,32.10
2022-08-08T10:06:19.310Z,32.18
2022-08-08T10:08:32.957Z,32.21
2022-08-08T10:10:50.037Z,32.07
2022-08-08T10:12:57.470Z,31.95
2022-08-08T10:15:18.026Z,32.08
2022-08-08T10:17:56.526Z,32.11
2022-08-08T10:19:46.164Z,32.04
2022-08-08T10:22:01.957Z,31.94
2022-08-08T10:24:29.314Z,32.00
2022-08-08T10:26:57.520Z,32.27
2022-08-08T10:29:05.721Z,32.34
2022-08-08T10:31:47.568Z,32.43
2022-08-08T10:34:18.507Z,32.33
2022-08-08T10:36:20.385Z,32.56
2022-08-08T10:38:26.535Z,32.75
2022-08-08T10:40:32.342Z,32.84
2022-08-08T10:42:37.385Z,32.71
2022-08-08T10:44:42.135Z,32.66
2022-08-08T10:46:44.666Z,32.66
2022-08-08T10:48:56.867Z,32.83
2022-08-08T10:51:12.366Z,33.02
2022-08-08T10:53:16.448Z,33.08
2022-08-08T10:55:41.218Z,33.34
2022-08-08T10:57:53.057Z,33.52
2022-08-08T10:59:59.050Z,33.66
2022-08-08T11:02:02.708Z,33.65
2022-08-08T11:04:10.613Z,33.64
2022-08-08T11:06:15.967Z,33.78
2022-08-08T11:08:42.960Z,33.89
2022-08-08T11:11:59.841Z,34.07
2022-08-08T11:13:59.875Z,34.28
2022-08-08T11:16:08.006Z,34.24
2022-08-08T11:18:14.451Z,34.06
2022-08-08T11:20:27.732Z,34.01
2022-08-08T11:22:33.177Z,33.87
2022-08-08T11:24:37.794Z,33.96
2022-08-08T11:26:56.275Z,34.10
2022-08-08T11:29:04.926Z,34.41
2022-08-08T11:31:08.658Z,34.45
2022-08-08T11:33:13.109Z,34.26
2022-08-08T11:35:24.880Z,34.07
2022-08-08T11:38:34.386Z,33.94
2022-08-08T11:40:07.004Z,34.12
2022-08-08T11:42:10.484Z,34.67
2022-08-08T11:44:15.125Z,35.07
2022-08-08T11:46:18.688Z,35.31
2022-08-08T11:48:23.302Z,35.62
2022-08-08T11:50:31.049Z,35.77
2022-08-08T11:52:35.889Z,35.82
2022-08-08T11:54:46.399Z,35.90
2022-08-08T11:56:56.632Z,35.98
2022-08-08T11:59:08.192Z,36.24
2022-08-08T12:01:16.347Z,36.23
2022-08-08T12:03:20.865Z,36.37
2022-08-08T12:05:41.629Z,36.26
2022-08-08T12:07:53.135Z,36.21
2022-08-08T12:10:00.486Z,36.12
2022-08-08T12:12:06.143Z,36.21
2022-08-08T12:14:11.795Z,35.84
2022-08-08T12:16:17.304Z,36.00
2022-08-08T12:18:25.483Z,35.92
2022-08-08T12:20:40.390Z,36.26
2022-08-08T12:22:51.202Z,36.66
2022-08-08T12:24:56.195Z,36.99
2022-08-08T12:26:59.396Z,37.23
2022-08-08T12:29:01.952Z,37.20
2022-08-08T12:31:10.640Z,37.51
2022-08-08T12:33:21.288Z,37.42
2022-08-08T12:35:23.925Z,37.28
2022-08-08T12:37:40.047Z,37.09
2022-08-08T12:40:02.182Z,37.51
2022-08-08T12:42:06.979Z,37.44
2022-08-08T12:44:32.319Z,37.97
2022-08-08T12:46:36.302Z,38.48
2022-08-08T12:48:39.118Z,38.79
2022-08-08T12:50:46.722Z,38.99
2022-08-08T12:52:54.477Z,39.30
2022-08-08T12:55:13.198Z,39.73
2022-08-08T12:57:26.354Z,39.83
2022-08-08T12:59:44.611Z,39.76
2022-08-08T13:02:01.706Z,39.79
2022-08-08T13:04:19.287Z,39.77
2022-08-08T13:06:27.383Z,39.62
2022-08-08T13:08:53.453Z,39.28
2022-08-08T13:10:58.693Z,39.30
2022-08-08T13:13:05.825Z,39.58
2022-08-08T13:15:19.470Z,39.63
2022-08-08T13:18:08.644Z,39.23
2022-08-08T13:19:49.770Z,39.00
2022-08-08T13:21:58.307Z,39.18
2022-08-08T13:24:08.311Z,39.40
2022-08-08T13:26:21.697Z,39.72
2022-08-08T13:28:32.791Z,39.67
2022-08-08T13:30:35.556Z,39.68
2022-08-08T13:32:39.959Z,39.63
2022-08-08T13:34:42.601Z,39.13
2022-08-08T13:36:45.481Z,39.29
2022-08-08T13:38:47.995Z,39.36
2022-08-08T13:40:51.427Z,39.39
2022-08-08T13:42:56.032Z,39.63
2022-08-08T13:45:01.310Z,39.74
2022-08-08T13:47:07.436Z,39.63
2022-08-08T13:50:36.846Z,39.65
2022-08-08T13:51:41.861Z,39.98
2022-08-08T13:54:00.273Z,40.31
2022-08-08T13:56:11.290Z,40.35
2022-08-08T13:58:20.759Z,40.40
2022-08-08T14:00:24.627Z,40.35
2022-08-08T14:02:32.835Z,40.62
2022-08-08T14:04:36.748Z,40.77
2022-08-08T14:06:45.589Z,41.05
2022-08-08T14:08:49.747Z,40.54
2022-08-08T14:10:52.505Z,39.79
2022-08-08T14:12:57.068Z,39.68
2022-08-08T14:15:03.134Z,39.74
2022-08-08T14:17:11.851Z,39.95
2022-08-08T14:19:57.739Z,39.50
2022-08-08T14:22:24.214Z,39.74
2022-08-08T14:24:33.809Z,40.04
2022-08-08T14:26:46.322Z,40.41
2022-08-08T14:28:57.426Z,40.43
2022-08-08T14:31:11.550Z,40.39
2022-08-08T14:33:36.547Z,40.52
2022-08-08T14:35:41.690Z,40.71
2022-08-08T14:38:00.845Z,40.49
2022-08-08T14:40:07.129Z,39.83
2022-08-08T14:42:10.128Z,39.36
2022-08-08T14:44:21.214Z,38.94
2022-08-08T14:46:32.765Z,38.63
2022-08-08T14:48:57.095Z,38.36
2022-08-08T14:51:06.943Z,38.25
2022-08-08T14:53:14.562Z,38.18
2022-08-08T14:55:22.402Z,38.07
2022-08-08T14:58:02.379Z,38.18
2022-08-08T15:00:01.954Z,38.58
2022-08-08T15:02:06.806Z,38.98
2022-08-08T15:04:11.426Z,39.00
2022-08-08T15:06:16.549Z,39.30
2022-08-08T15:08:22.516Z,39.43
2022-08-08T15:10:38.466Z,39.81
2022-08-08T15:12:46.875Z,39.94
2022-08-08T15:14:49.772Z,40.13
2022-08-08T15:16:52.383Z,40.09
2022-08-08T15:18:55.241Z,40.24
2022-08-08T15:20:57.855Z,40.14
2022-08-08T15:23:01.642Z,39.79
2022-08-08T15:25:08.625Z,39.31
2022-08-08T15:27:57.787Z,38.84
2022-08-08T15:29:42.819Z,38.37
2022-08-08T15:32:18.112Z,38.02
2022-08-08T15:34:18.685Z,37.71
2022-08-08T15:36:32.745Z,37.39
2022-08-08T15:38:35.367Z,37.18
2022-08-08T15:40:44.368Z,36.94
2022-08-08T15:42:47.578Z,36.72
2022-08-08T15:44:52.271Z,36.54
2022-08-08T15:46:57.084Z,36.24
2022-08-08T15:48:59.764Z,35.96
2022-08-08T15:51:03.156Z,35.69
2022-08-08T15:53:09.330Z,35.38
2022-08-08T15:55:13.824Z,35.07
2022-08-08T15:57:16.532Z,34.87
2022-08-08T15:59:21.067Z,34.79
2022-08-08T16:01:59.555Z,34.69
2022-08-08T16:04:03.723Z,34.57
2022-08-08T16:06:06.540Z,34.34
2022-08-08T16:08:20.168Z,34.07
2022-08-08T16:13:05.868Z,33.50
2022-08-08T16:13:14.269Z,33.86
2022-08-08T16:15:09.972Z,33.28
2022-08-08T16:17:15.297Z,33.16
2022-08-08T16:19:59.549Z,32.99
2022-08-08T16:22:01.540Z,32.82
2022-08-08T16:24:07.005Z,32.74
2022-08-08T16:26:17.538Z,32.73
2022-08-08T16:28:32.613Z,32.60
2022-08-08T16:30:38.390Z,32.44
2022-08-08T16:32:43.138Z,32.30
2022-08-08T16:34:51.242Z,32.16
2022-08-08T16:36:54.035Z,32.07
2022-08-08T16:38:58.039Z,31.94
2022-08-08T16:41:02.626Z,31.84
2022-08-08T16:43:05.776Z,31.66
2022-08-08T16:45:11.478Z,31.56
2022-08-08T16:47:41.705Z,31.43
2022-08-08T16:49:47.783Z,31.39
2022-08-08T16:55:00.530Z,31.15
2022-08-08T16:55:02.368Z,31.28
2022-08-08T16:56:38.042Z,30.98
2022-08-08T16:59:01.054Z,30.85
2022-08-08T17:01:12.052Z,30.76
2022-08-08T17:03:18.134Z,30.71
2022-08-08T17:05:42.400Z,30.60
2022-08-08T17:07:51.260Z,30.48
2022-08-08T17:09:54.335Z,30.42
2022-08-08T17:11:59.424Z,30.28
2022-08-08T17:14:03.434Z,30.16
2022-08-08T17:16:06.533Z,30.02
2022-08-08T17:18:18.429Z,29.83
2022-08-08T17:20:21.527Z,29.71
2022-08-08T17:22:39.228Z,29.69
2022-08-08T17:24:53.630Z,29.70
2022-08-08T17:26:57.900Z,29.65
2022-08-08T17:29:04.235Z,29.61
2022-08-08T17:31:39.031Z,29.56
2022-08-08T17:34:37.435Z,29.43
2022-08-08T17:36:12.560Z,29.35
2022-08-08T17:38:17.697Z,29.33
2022-08-08T17:40:21.782Z,29.34
2022-08-08T17:42:24.607Z,29.33
2022-08-08T17:44:27.269Z,29.26
2022-08-08T17:46:40.254Z,29.16
2022-08-08T17:48:43.595Z,29.05
2022-08-08T17:50:50.544Z,29.00
2022-08-08T17:52:54.091Z,28.95
2022-08-08T17:55:00.409Z,28.90
2022-08-08T17:57:03.185Z,28.83
2022-08-08T17:59:07.769Z,28.75
2022-08-08T18:01:10.424Z,28.62
2022-08-08T18:03:14.153Z,28.51
2022-08-08T18:05:22.995Z,28.45
2022-08-08T18:08:04.222Z,28.36
2022-08-08T18:09:50.218Z,28.29
2022-08-08T18:11:55.747Z,28.26
2022-08-08T18:13:59.073Z,28.23
2022-08-08T18:16:04.592Z,28.25
2022-08-08T18:18:28.195Z,28.24
2022-08-08T18:20:44.559Z,28.18
2022-08-08T18:22:53.868Z,28.14
2022-08-08T18:24:57.513Z,28.08
2022-08-08T18:27:06.216Z,28.06
2022-08-08T18:29:25.816Z,28.04
2022-08-08T18:31:33.042Z,28.02
2022-08-08T18:34:10.644Z,27.99
2022-08-08T18:36:02.679Z,27.93
2022-08-08T18:38:16.863Z,27.90
2022-08-08T18:40:19.820Z,27.86
2022-08-08T18:42:37.755Z,27.81
2022-08-08T18:44:54.953Z,27.75
2022-08-08T18:47:00.748Z,27.72
2022-08-08T18:49:04.009Z,27.68
2022-08-08T18:51:33.366Z,27.63
2022-08-08T18:54:00.234Z,27.56
2022-08-08T18:55:56.075Z,27.53
2022-08-08T18:57:58.775Z,27.50
2022-08-08T19:00:02.877Z,27.48
2022-08-08T19:02:25.004Z,27.47
2022-08-08T19:04:29.636Z,27.44
2022-08-08T19:06:34.041Z,27.41
2022-08-08T19:08:37.624Z,27.39
2022-08-08T19:10:43.180Z,27.35
2022-08-08T19:12:53.041Z,27.30
2022-08-08T19:14:56.283Z,27.22
2022-08-08T19:16:58.996Z,27.20
2022-08-08T19:19:03.974Z,27.15
2022-08-08T19:21:29.365Z,27.07
2022-08-08T19:23:35.790Z,27.02
2022-08-08T19:26:22.535Z,26.99
2022-08-08T19:28:01.234Z,26.97
2022-08-08T19:30:05.168Z,26.95
2022-08-08T19:32:22.847Z,26.94
2022-08-08T19:34:35.634Z,26.92
2022-08-08T19:36:41.849Z,26.90
2022-08-08T19:38:48.276Z,26.87
2022-08-08T19:40:56.249Z,26.84
2022-08-08T19:42:59.139Z,26.82
2022-08-08T19:45:07.149Z,26.79
2022-08-08T19:47:10.269Z,26.77
2022-08-08T19:49:15.060Z,26.72
2022-08-08T19:51:25.141Z,26.71
2022-08-08T19:53:52.030Z,26.64
2022-08-08T19:55:56.390Z,26.60
2022-08-08T19:57:59.087Z,26.58
2022-08-08T20:00:03.510Z,26.59
2022-08-08T20:02:14.301Z,26.58
2022-08-08T20:04:18.095Z,26.55
2022-08-08T20:06:24.982Z,26.54
2022-08-08T20:08:32.099Z,26.52
2022-08-08T20:10:34.943Z,26.49
2022-08-08T20:12:58.954Z,26.47
2022-08-08T20:15:15.163Z,26.42
2022-08-08T20:17:26.943Z,26.40
2022-08-08T20:19:33.465Z,26.33
2022-08-08T20:21:38.445Z,26.26
2022-08-08T20:23:41.216Z,26.24
2022-08-08T20:25:43.924Z,26.21
2022-08-08T20:27:49.445Z,26.18
2022-08-08T20:30:01.078Z,26.17
2022-08-08T20:32:13.193Z,26.15
2022-08-08T20:34:30.341Z,26.10
2022-08-08T20:36:35.516Z,26.09
2022-08-08T20:38:41.940Z,26.04
2022-08-08T20:40:51.127Z,26.00
2022-08-08T20:42:55.539Z,25.97
2022-08-08T20:44:59.070Z,25.94
2022-08-08T20:47:02.907Z,25.90
2022-08-08T20:49:07.534Z,25.87
2022-08-08T20:51:14.445Z,25.83
2022-08-08T20:54:00.214Z,25.83
2022-08-08T20:55:42.410Z,25.77
2022-08-08T20:57:47.790Z,25.79
2022-08-08T20:59:54.284Z,25.80
2022-08-08T21:02:07.161Z,25.78
2022-08-08T21:04:14.355Z,25.76
2022-08-08T21:06:17.643Z,25.76
2022-08-08T21:08:36.134Z,25.74
2022-08-08T21:10:43.346Z,25.70
2022-08-08T21:12:46.865Z,25.67
2022-08-08T21:14:55.856Z,25.65
2022-08-08T21:16:58.640Z,25.63
2022-08-08T21:19:01.838Z,25.60
2022-08-08T21:21:39.796Z,25.59
2022-08-08T21:23:59.296Z,25.55
2022-08-08T21:26:07.282Z,25.51
2022-08-08T21:28:16.187Z,25.49
2022-08-08T21:30:21.922Z,25.47
2022-08-08T21:32:25.806Z,25.47
2022-08-08T21:34:30.083Z,25.46
2022-08-08T21:36:32.867Z,25.45
2022-08-08T21:38:36.057Z,25.45
2022-08-08T21:40:38.675Z,25.45
2022-08-08T21:42:58.222Z,25.42
2022-08-08T21:45:20.833Z,25.39
2022-08-08T21:48:06.844Z,25.36
2022-08-08T21:49:46.215Z,25.33
2022-08-08T21:54:30.979Z,25.24
2022-08-08T21:54:33.582Z,25.28
2022-08-08T21:56:43.356Z,25.17
2022-08-08T21:58:46.342Z,25.15
2022-08-08T22:00:57.667Z,25.09
2022-08-08T22:03:06.985Z,25.05
2022-08-08T22:05:10.920Z,25.03
2022-08-08T22:07:17.784Z,25.00
2022-08-08T22:09:26.971Z,24.95
2022-08-08T22:12:02.136Z,24.93
2022-08-08T22:14:03.409Z,24.85
2022-08-08T22:16:08.797Z,24.87
2022-08-08T22:18:12.492Z,24.84
2022-08-08T22:20:23.729Z,24.81
2022-08-08T22:22:34.518Z,24.77
2022-08-08T22:24:40.982Z,24.74
2022-08-08T22:27:01.388Z,24.62
2022-08-08T22:29:59.092Z,24.64
2022-08-08T22:31:29.500Z,24.60
2022-08-08T22:34:12.013Z,24.57
2022-08-08T22:36:05.429Z,24.54
2022-08-08T22:38:17.728Z,24.52
2022-08-08T22:40:20.643Z,24.50
2022-08-08T22:42:32.138Z,24.50
2022-08-08T22:44:38.016Z,24.47
2022-08-08T22:46:41.195Z,24.47
2022-08-08T22:48:50.770Z,24.48
2022-08-08T22:50:57.230Z,24.41
2022-08-08T22:54:29.266Z,24.29
2022-08-08T22:55:25.288Z,24.14
2022-08-08T22:57:44.152Z,24.00
2022-08-08T22:59:58.986Z,23.84
2022-08-08T23:02:04.662Z,23.75
2022-08-08T23:04:15.743Z,23.68
2022-08-08T23:06:34.902Z,23.62
2022-08-08T23:08:44.518Z,23.59
2022-08-08T23:11:06.473Z,23.53
2022-08-08T23:13:16.033Z,23.50
2022-08-08T23:16:37.715Z,23.49
2022-08-08T23:17:54.041Z,23.45
2022-08-08T23:20:00.550Z,23.40
2022-08-08T23:22:06.719Z,23.40
2022-08-08T23:24:10.916Z,23.37
2022-08-08T23:26:13.637Z,23.35
2022-08-08T23:28:18.902Z,23.36
2022-08-08T23:30:23.676Z,23.34
2022-08-08T23:32:26.572Z,23.31
2022-08-08T23:34:31.077Z,23.31
2022-08-08T23:36:33.831Z,23.31
2022-08-08T23:38:44.399Z,23.28
2022-08-08T23:40:47.485Z,23.27
2022-08-08T23:42:57.013Z,23.25
2022-08-08T23:45:00.365Z,23.24
2022-08-08T23:49:04.179Z,23.22
2022-08-08T23:49:26.803Z,23.20
2022-08-08T23:52:03.698Z,23.23
2022-08-08T23:54:05.003Z,23.25
2022-08-08T23:56:09.261Z,23.25
2022-08-08T23:58:37.849Z,23.28
